, TX

(GMT )
Ingleside

Weather History for KTFP - January, 2013

Change the Weather History Date:

Tuesday, January 22, 2013

  Actual Average Record
Temperature  
Mean Temperature 61 °F -  
Max Temperature 74 °F - - ()
Min Temperature 48 °F - - ()
Degree Days  
Heating Degree Days 4    
Growing Degree Days 11 (Base 50)    
Moisture  
Dew Point 55 °F    
Average Humidity 81    
Maximum Humidity 97    
Minimum Humidity 47    
Precipitation  
Precipitation 0.00 in - - ()
Sea Level Pressure  
Sea Level Pressure 30.24 in    
Wind  
Wind Speed 5 mph (ENE)    
Max Wind Speed 15 mph    
Max Gust Speed 18 mph    
Visibility 7 miles    
Events Fog    
Averages and records for this station are not official NWS values.
T = Trace of Precipitation, MM = Missing Value Source: NWS Daily Summary

Daily Weather History Graph

Daily Weather History Graph

Search for Another Location

Airport or City:

Trip Planner

Search our weather history database for the weather conditions in past years. The results will help you decide how hot, cold, wet, or windy it might be!

Date:

Astronomy

Jan. 22, 2013 Rise Set
Actual Time 7:19 AM CST 6:01 PM CST
Civil Twilight 6:54 AM CST 6:26 PM CST
Nautical Twilight 6:26 AM CST 6:54 PM CST
Astronomical Twilight 5:58 AM CST 7:23 PM CST
Moon 2:29 PM CST (1/22) 3:39 AM CST (1/22)
Length of Visible Light 11h 31m
Length of Day
10h 41m
Waxing Gibbous, 83% of the Moon is Illuminated
Jan 22
Waxing Gibbous
Jan 26
Full
Feb 3
Last Quarter
Feb 10
New
Feb 17
First Quarter

Hourly Weather History & Observations

Time (CST) Temp. Dew Point Humidity Pressure Visibility Wind Dir Wind Speed Gust Speed Precip Events Conditions
12:15 AM 53.8 °F 52.5 °F 95% 30.19 in 3.0 mi ESE 4.6 mph - N/A   Clear
12:35 AM 54.1 °F 53.1 °F 96% 30.19 in 7.0 mi ESE 4.6 mph - N/A   Clear
12:55 AM 54.1 °F 53.1 °F 96% 30.19 in 10.0 mi SE 3.5 mph - N/A   Clear
1:15 AM 54.3 °F 53.2 °F 96% 30.19 in 7.0 mi Calm Calm - N/A   Clear
1:55 AM 52.3 °F 51.3 °F 96% 30.18 in 1.2 mi Calm Calm - N/A   Mist
2:15 AM 51.1 °F 50.0 °F 96% 30.18 in 4.0 mi Calm Calm - N/A   Clear
2:35 AM 49.6 °F 48.6 °F 96% 30.18 in 4.0 mi Calm Calm - N/A   Clear
2:55 AM 49.8 °F 48.9 °F 97% 30.19 in 4.0 mi NE 4.6 mph - N/A   Clear
3:15 AM 50.2 °F 49.3 °F 97% 30.18 in 4.0 mi NE 3.5 mph - N/A   Clear
3:35 AM 50.0 °F 48.9 °F 96% 30.19 in 5.0 mi NE 3.5 mph - N/A   Clear
3:55 AM 50.2 °F 49.1 °F 96% 30.20 in 3.0 mi NE 3.5 mph - N/A   Clear
4:15 AM 50.9 °F 49.8 °F 96% 30.20 in 4.0 mi NNE 3.5 mph - N/A   Clear
4:35 AM 50.2 °F 49.1 °F 96% 30.20 in 1.5 mi North 3.5 mph - N/A   Mist
4:55 AM 49.8 °F 48.7 °F 96% 30.20 in 5.0 mi North 4.6 mph - N/A   Clear
6:35 AM - - N/A% 30.23 in 7.0 mi NNE 4.6 mph - N/A   Unknown
6:55 AM 48.9 °F 47.8 °F 96% 30.24 in 7.0 mi NNE 4.6 mph - N/A   Clear
7:15 AM 49.3 °F 48.2 °F 96% 30.25 in 5.0 mi NE 3.5 mph - N/A   Clear
7:35 AM 49.8 °F 48.9 °F 97% 30.25 in 0.5 mi NE 4.6 mph - N/A Fog Fog
7:55 AM 49.5 °F 48.4 °F 96% 30.26 in 0.5 mi NNE 5.8 mph - N/A Fog Fog
8:15 AM 51.1 °F 50.0 °F 96% 30.26 in 4.0 mi NNE 4.6 mph - N/A   Clear
8:35 AM 55.4 °F 54.3 °F 96% 30.27 in 7.0 mi NE 3.5 mph - N/A   Clear
8:55 AM 58.8 °F 57.7 °F 96% 30.28 in 10.0 mi NNE 4.6 mph - N/A   Clear
9:15 AM 61.0 °F 59.9 °F 96% 30.28 in 10.0 mi NE 4.6 mph - N/A   Clear
9:35 AM 63.3 °F 60.4 °F 90% 30.29 in 10.0 mi ENE 3.5 mph - N/A   Clear
9:55 AM 66.0 °F 59.9 °F 81% 30.30 in 10.0 mi ENE 4.6 mph - N/A   Clear
10:15 AM 68.9 °F 59.2 °F 71% 30.30 in 10.0 mi East 6.9 mph - N/A   Clear
10:35 AM 71.4 °F 56.7 °F 60% 30.30 in 10.0 mi East 6.9 mph - N/A   Clear
10:55 AM 72.3 °F 55.0 °F 54% 30.29 in 10.0 mi ESE 10.4 mph - N/A   Clear
11:15 AM 72.5 °F 54.0 °F 52% 30.29 in 10.0 mi ESE 11.5 mph 16.1 mph N/A   Clear
11:35 AM 73.2 °F 53.6 °F 50% 30.29 in 10.0 mi ESE 11.5 mph 17.3 mph N/A   Clear
11:55 AM 73.9 °F 53.4 °F 49% 30.28 in 10.0 mi SE 12.7 mph - N/A   Clear
12:15 PM 73.2 °F 53.2 °F 49% 30.27 in 10.0 mi ESE 12.7 mph 16.1 mph N/A   Clear
12:35 PM 73.0 °F 53.1 °F 49% 30.26 in 10.0 mi East 11.5 mph 16.1 mph N/A   Clear
12:55 PM 73.0 °F 53.1 °F 49% 30.25 in 10.0 mi ESE 13.8 mph - N/A   Clear
1:15 PM 73.2 °F 53.1 °F 49% 30.24 in 10.0 mi ESE 11.5 mph - N/A   Clear
1:35 PM 72.9 °F 52.5 °F 49% 30.23 in 10.0 mi ESE 13.8 mph 18.4 mph N/A   Clear
1:55 PM 74.1 °F 52.9 °F 47% 30.22 in 10.0 mi East 15.0 mph 18.4 mph N/A   Clear
2:15 PM 72.1 °F 53.2 °F 51% 30.22 in 10.0 mi ESE 13.8 mph - N/A   Clear
2:35 PM 72.3 °F 54.0 °F 52% 30.22 in 10.0 mi East 12.7 mph - N/A   Clear
2:55 PM 72.3 °F 54.5 °F 53% 30.22 in 10.0 mi ESE 11.5 mph - N/A   Clear
3:15 PM 72.9 °F 54.5 °F 52% 30.22 in 10.0 mi East 11.5 mph 17.3 mph N/A   Clear
3:35 PM 72.3 °F 54.7 °F 54% 30.22 in 10.0 mi East 12.7 mph 16.1 mph N/A   Clear
3:55 PM 72.1 °F 54.7 °F 54% 30.22 in 10.0 mi East 12.7 mph - N/A   Clear
4:15 PM 71.2 °F 55.2 °F 57% 30.22 in 10.0 mi East 10.4 mph - N/A   Clear
4:35 PM 70.0 °F 56.8 °F 63% 30.22 in 10.0 mi East 9.2 mph - N/A   Clear
4:55 PM 68.5 °F 57.9 °F 69% 30.23 in 10.0 mi East 9.2 mph - N/A   Clear
5:15 PM 67.1 °F 59.2 °F 76% 30.22 in 10.0 mi East 8.1 mph - N/A   Clear
5:35 PM 65.8 °F 59.9 °F 81% 30.23 in 10.0 mi East 9.2 mph - N/A   Clear
5:55 PM 64.8 °F 59.5 °F 83% 30.23 in 10.0 mi East 5.8 mph - N/A   Clear
6:15 PM 63.7 °F 59.2 °F 85% 30.23 in 10.0 mi East 5.8 mph - N/A   Clear
6:35 PM 63.3 °F 59.2 °F 86% 30.23 in 10.0 mi ENE 4.6 mph - N/A   Clear
6:55 PM 62.4 °F 58.8 °F 88% 30.23 in 10.0 mi East 5.8 mph - N/A   Clear
7:15 PM 61.9 °F 58.8 °F 90% 30.23 in 10.0 mi ENE 5.8 mph - N/A   Clear
7:35 PM 61.7 °F 58.8 °F 90% 30.24 in 10.0 mi ENE 5.8 mph - N/A   Clear
7:55 PM 61.5 °F 58.8 °F 91% 30.24 in 10.0 mi ENE 4.6 mph - N/A   Clear
8:15 PM 61.2 °F 58.6 °F 91% 30.25 in 10.0 mi ENE 4.6 mph - N/A   Clear
8:35 PM 60.4 °F 58.3 °F 93% 30.25 in 10.0 mi ENE 4.6 mph - N/A   Clear
8:55 PM 60.1 °F 58.1 °F 93% 30.25 in 7.0 mi ENE 4.6 mph - N/A   Clear
9:15 PM 59.9 °F 58.1 °F 94% 30.25 in 7.0 mi East 4.6 mph - N/A   Clear
9:35 PM 59.7 °F 58.1 °F 94% 30.26 in 7.0 mi East 3.5 mph - N/A   Clear
9:55 PM 58.8 °F 57.4 °F 95% 30.26 in 1.0 mi Calm Calm - N/A   Mist
10:15 PM 56.7 °F 55.2 °F 95% 30.26 in 0.2 mi Calm Calm - N/A Fog Fog
10:35 PM 57.4 °F 56.1 °F 96% 30.26 in 1.0 mi Calm Calm - N/A   Mist
10:55 PM 56.7 °F 55.4 °F 96% 30.26 in 0.8 mi Calm Calm - N/A   Mist
11:15 PM 56.7 °F 55.8 °F 97% 30.26 in 1.2 mi Calm Calm - N/A   Mist
11:35 PM 55.6 °F 54.5 °F 96% 30.26 in 1.5 mi Calm Calm - N/A   Mist
11:55 PM 54.9 °F 53.8 °F 96% 30.26 in 3.0 mi East 3.5 mph - N/A   Clear